Clarkston, WA (99403)

5:41 PM PST on November 25, 2014 (GMT -0800)
Clarkston Heights - Florence Lane | Change Station
CLOSE
Current Station
Personal Weather Station
Location: Clarkston, WA
Elevation: 1119 ft
Nearby Weather Stations

Elev 1119 ft 46.41 °N, 117.10 °W | Updated 8 minutes ago

Light Rain
Light Rain
44.4 °F
Feels Like 44 °F
N
1.6
Wind Variable Wind from ENE

Today
High -- | Low -- °F
--% Chance of Precip.
Yesterday
High -- | Low -- °F
Precip. -- in
7:03 AM 4:06 PM
Waxing Crescent, 15% visible
Pressure 30.17 in
Visibility 9.0 miles
Clouds Overcast 1000 ft
Windchill 44 °F
Dew Point 44 °F
Humidity 99%
Rainfall 0.64 in
Snow Depth Not available.
UV 0 out of 12
Pollen .10 out of 12
Air Quality Not available.
Flu Activity Not available.
SPECI KLWS 260117Z 07006KT 9SM -RA OVC010 07/06 A3017 RMK AO2 P0001 T00670056

More Conditions Fewer Conditions

Pressure 30.17 in
Visibility 9.0 miles
Clouds Overcast 1000 ft
Windchill 44 °F
Dew Point 44 °F
Humidity 99%
Rainfall 0.64 in
Snow Depth Not available.
UV 0 out of 12
Pollen .10 out of 12
Air Quality Not available.
Flu Activity Not available.
SPECI KLWS 260117Z 07006KT 9SM -RA OVC010 07/06 A3017 RMK AO2 P0001 T00670056

More Conditions Fewer Conditions

10-Day Weather Forecast

Almanac

Astronomy

Nov. 25, 2014 Rise Set
Actual Time
Civil Twilight
Nautical Twilight
Astronomical Twilight
Moon
Length of Visible Light
Length of Day
Tomorrow will be .
, % of the Moon is Illuminated

Today's Extremes

State Highs State Lows

Community

WunderPhotos

Upload Photos

1,773,634 photos uploaded!

WunderBlogs® & News

Nearby

Air Quality

  Air Quality AQ Index Pollutant
Not available.

Snow Depth

Station Depth Elevation

Earthquake Activity

City Distance Mag. Time & Date
Minimum magnitude displayed is 2.5.

Coastal Water Temperatures

Place Temperature

Nearby Weather Stations